Time;durP1;ratioP1;P1;durP2;ratioP2;P2;SDS_P1;SDS_P2;PMS_P1;PMS_P2;Temp;Humidity;BMP_temperature;BMP_pressure;BME280_temperature;BME280_humidity;BME280_pressure;Samples;Min_cycle;Max_cycle;Signal;HPM_P1;HPM_P2
2023/07/14 00:00:40;;;;;;;;;;;;;;;;;;4960764;28;19937;-80
2023/07/14 00:03:12;;;;;;;;;;;;;;;;;;4946560;29;19926;-80
2023/07/14 00:05:45;;;;;;;;;;;;;;;;;;4948031;29;20015;-80
2023/07/14 00:08:13;;;;;;;;;;;;;;;;;;4955694;28;19934;-79
2023/07/14 00:10:40;;;;;;;;;;;;;;;;;;4946378;29;19930;-80
2023/07/14 00:13:08;;;;;;;;;;;;;;;;;;4944672;29;19934;-80
2023/07/14 00:15:41;;;;;;;;;;;;;;;;;;4947731;28;19931;-80
2023/07/14 00:18:08;;;;;;;;;;;;;;;;;;4949267;29;19934;-79
2023/07/14 00:20:41;;;;;;;;;;;;;;;;;;4947389;29;19930;-81
2023/07/14 00:23:08;;;;;;;;;;;;;;;;;;4946975;28;20287;-80
2023/07/14 00:25:41;;;;;;;;;;;;;;;;;;4959613;28;20299;-80
2023/07/14 00:28:13;;;;;;;;;;;;;;;;;;4948673;29;19927;-81
2023/07/14 00:30:46;;;;;;;;;;;;;;;;;;4937168;29;19938;-80
2023/07/14 00:33:13;;;;;;;;;;;;;;;;;;4952479;28;19930;-81
2023/07/14 00:35:41;;;;;;;;;;;;;;;;;;4960292;28;20306;-81
2023/07/14 00:38:08;;;;;;;;;;;;;;;;;;4944765;29;19930;-80
2023/07/14 00:40:36;;;;;;;;;;;;;;;;;;4960622;28;19957;-81
2023/07/14 00:43:09;;;;;;;;;;;;;;;;;;4947671;29;19937;-81
2023/07/14 00:45:43;;;;;;;;;;;;;;;;;;4948556;29;19930;-80
2023/07/14 00:48:10;;;;;;;;;;;;;;;;;;4938987;29;20255;-80
2023/07/14 00:50:43;;;;;;;;;;;;;;;;;;4948862;29;20375;-79
2023/07/14 00:53:11;;;;;;;;;;;;;;;;;;4958025;28;20383;-80
2023/07/14 00:55:39;;;;;;;;;;;;;;;;;;4947803;29;19926;-80
2023/07/14 00:58:11;;;;;;;;;;;;;;;;;;4946046;29;19937;-80
2023/07/14 01:00:44;;;;;;;;;;;;;;;;;;4940941;29;19931;-81
2023/07/14 01:03:12;;;;;;;;;;;;;;;;;;4946441;29;20577;-81
2023/07/14 01:05:39;;;;;;;;;;;;;;;;;;4960968;28;19933;-80
2023/07/14 01:08:07;;;;;;;;;;;;;;;;;;4961090;28;20720;-80
2023/07/14 01:10:40;;;;;;;;;;;;;;;;;;4939712;29;19930;-80
2023/07/14 01:13:07;;;;;;;;;;;;;;;;;;4947234;29;19954;-80
2023/07/14 01:15:35;;;;;;;;;;;;;;;;;;4955133;28;19938;-80
2023/07/14 01:18:02;;;;;;;;;;;;;;;;;;4945920;29;19930;-79
2023/07/14 01:20:30;;;;;;;;;;;;;;;;;;4947422;29;19931;-81
2023/07/14 01:22:59;;;;;;;;;;;;;;;;;;4946555;29;20725;-80
2023/07/14 01:25:26;;;;;;;;;;;;;;;;;;4947089;29;19930;-81
2023/07/14 01:27:59;;;;;;;;;;;;;;;;;;4951779;28;20323;-80
2023/07/14 01:30:26;;;;;;;;;;;;;;;;;;4951816;29;19946;-80
2023/07/14 01:32:59;;;;;;;;;;;;;;;;;;4951338;28;19934;-80
2023/07/14 01:35:26;;;;;;;;;;;;;;;;;;4968177;28;19927;-80
2023/07/14 01:37:59;;;;;;;;;;;;;;;;;;4953251;28;20303;-80
2023/07/14 01:40:28;;;;;;;;;;;;;;;;;;4964764;28;19957;-81
2023/07/14 01:43:01;;;;;;;;;;;;;;;;;;4944830;29;19930;-79
2023/07/14 01:45:30;;;;;;;;;;;;;;;;;;4969059;28;19930;-79
2023/07/14 01:47:57;;;;;;;;;;;;;;;;;;4954051;29;20387;-81
2023/07/14 01:50:25;;;;;;;;;;;;;;;;;;4955289;29;19938;-80
2023/07/14 01:52:58;;;;;;;;;;;;;;;;;;4952389;28;19930;-80
2023/07/14 01:55:31;;;;;;;;;;;;;;;;;;4946481;29;19930;-80
2023/07/14 01:57:59;;;;;;;;;;;;;;;;;;4946561;29;19930;-79
2023/07/14 02:00:26;;;;;;;;;;;;;;;;;;4958933;28;19965;-79
2023/07/14 02:02:54;;;;;;;;;;;;;;;;;;4965603;28;19930;-80
2023/07/14 02:05:26;;;;;;;;;;;;;;;;;;4951364;28;20597;-81
2023/07/14 02:07:54;;;;;;;;;;;;;;;;;;4950076;29;19947;-81
2023/07/14 02:10:26;;;;;;;;;;;;;;;;;;4965251;28;20023;-81
2023/07/14 02:12:54;;;;;;;;;;;;;;;;;;4965019;28;19926;-80
2023/07/14 02:15:27;;;;;;;;;;;;;;;;;;4953055;28;19935;-81
2023/07/14 02:17:59;;;;;;;;;;;;;;;;;;4954402;28;19934;-81
2023/07/14 02:20:28;;;;;;;;;;;;;;;;;;4951172;28;19946;-81
2023/07/14 02:22:56;;;;;;;;;;;;;;;;;;4966221;28;19927;-81
2023/07/14 02:25:23;;;;;;;;;;;;;;;;;;4952657;29;19938;-80
2023/07/14 02:27:56;;;;;;;;;;;;;;;;;;4949278;28;19935;-81
2023/07/14 02:30:26;;;;;;;;;;;;;;;;;;4964328;28;19930;-82
2023/07/14 02:32:54;;;;;;;;;;;;;;;;;;4953643;29;19931;-81
2023/07/14 02:35:22;;;;;;;;;;;;;;;;;;4968303;28;19930;-81
2023/07/14 02:38:03;;;;;;;;;;;;;;;;;;4950281;28;19930;-81
2023/07/14 02:40:30;;;;;;;;;;;;;;;;;;4964666;28;19927;-80
2023/07/14 02:42:58;;;;;;;;;;;;;;;;;;4964310;28;19930;-81
2023/07/14 02:45:30;;;;;;;;;;;;;;;;;;4948782;29;19938;-81
2023/07/14 02:47:58;;;;;;;;;;;;;;;;;;4951638;29;19941;-81
2023/07/14 02:50:26;;;;;;;;;;;;;;;;;;4950330;29;19927;-81
2023/07/14 02:52:53;;;;;;;;;;;;;;;;;;4950141;29;20386;-81
2023/07/14 02:55:21;;;;;;;;;;;;;;;;;;4960039;28;19942;-81
2023/07/14 02:57:49;;;;;;;;;;;;;;;;;;4941831;29;19937;-80
2023/07/14 03:00:21;;;;;;;;;;;;;;;;;;4946858;29;19927;-81
2023/07/14 03:02:49;;;;;;;;;;;;;;;;;;4947780;28;19937;-80
2023/07/14 03:05:17;;;;;;;;;;;;;;;;;;4942832;29;20661;-81
2023/07/14 03:07:50;;;;;;;;;;;;;;;;;;4950938;29;19942;-80
2023/07/14 03:10:24;;;;;;;;;;;;;;;;;;4949913;29;19930;-80
2023/07/14 03:12:53;;;;;;;;;;;;;;;;;;4946861;29;20484;-81
2023/07/14 03:15:21;;;;;;;;;;;;;;;;;;4944562;29;19935;-81
2023/07/14 03:17:53;;;;;;;;;;;;;;;;;;4947754;29;19938;-81
2023/07/14 03:20:22;;;;;;;;;;;;;;;;;;4961276;28;19937;-81
2023/07/14 03:22:54;;;;;;;;;;;;;;;;;;4946359;29;19930;-81
2023/07/14 03:25:27;;;;;;;;;;;;;;;;;;4946517;29;19938;-81
2023/07/14 03:28:01;;;;;;;;;;;;;;;;;;4949127;29;20376;-79
2023/07/14 03:30:31;;;;;;;;;;;;;;;;;;4963292;28;19930;-81
2023/07/14 03:32:58;;;;;;;;;;;;;;;;;;4960666;23;20396;-91
2023/07/14 03:35:36;;;;;;;;;;;;;;;;;;4930721;29;19933;-92
2023/07/14 03:38:27;;;;;;;;;;;;;;;;;;4923529;29;20391;-92
2023/07/14 03:41:47;;;;;;;;;;;;;;;;;;4940915;29;20305;-92
2023/07/14 03:44:32;;;;;;;;;;;;;;;;;;4914332;29;19947;-92
2023/07/14 03:47:20;;;;;;;;;;;;;;;;;;;;;
2023/07/14 03:52:55;;;;;;;;;;;;;;;;;;4913589;29;20401;-93
2023/07/14 03:56:14;;;;;;;;;;;;;;;;;;4921153;29;19934;-94
2023/07/14 04:02:00;;;;;;;;;;;;;;;;;;4914596;29;19931;-93
2023/07/14 04:05:37;;;;;;;;;;;;;;;;;;4942618;29;19933;-93
2023/07/14 04:11:37;;;;;;;;;;;;;;;;;;4900878;29;19931;-93
2023/07/14 04:17:24;;;;;;;;;;;;;;;;;;4917767;29;19930;-94
2023/07/14 04:19:59;;;;;;;;;;;;;;;;;;4927905;29;19926;-92
2023/07/14 04:22:37;;;;;;;;;;;;;;;;;;4916213;29;19927;-92
2023/07/14 04:25:25;;;;;;;;;;;;;;;;;;4924630;29;20008;-93
2023/07/14 04:28:14;;;;;;;;;;;;;;;;;;4922955;29;19938;-92
2023/07/14 04:41:08;;;;;;;;;;;;;;;;;;4887546;29;19926;-93
2023/07/14 04:46:53;;;;;;;;;;;;;;;;;;4889824;29;19931;-83
2023/07/14 04:49:20;;;;;;;;;;;;;;;;;;4891664;29;20320;-82
2023/07/14 04:51:48;;;;;;;;;;;;;;;;;;4875939;29;19931;-83
2023/07/14 04:54:16;;;;;;;;;;;;;;;;;;4876109;29;19954;-83
2023/07/14 04:56:44;;;;;;;;;;;;;;;;;;4890997;29;19941;-83
2023/07/14 04:59:11;;;;;;;;;;;;;;;;;;4891862;29;19927;-83
2023/07/14 05:01:39;;;;;;;;;;;;;;;;;;4884996;29;20459;-81
2023/07/14 05:04:06;;;;;;;;;;;;;;;;;;4885633;29;20296;-84
2023/07/14 05:06:34;;;;;;;;;;;;;;;;;;4906643;29;20369;-83
2023/07/14 05:09:02;;;;;;;;;;;;;;;;;;4909657;29;19938;-83
2023/07/14 05:11:34;;;;;;;;;;;;;;;;;;4907596;29;20308;-82
2023/07/14 05:14:04;;;;;;;;;;;;;;;;;;4910035;29;19931;-83
2023/07/14 05:16:36;;;;;;;;;;;;;;;;;;4893299;29;20692;-83
2023/07/14 05:19:04;;;;;;;;;;;;;;;;;;4910434;29;19935;-83
2023/07/14 05:21:31;;;;;;;;;;;;;;;;;;4909542;29;19931;-83
2023/07/14 05:24:04;;;;;;;;;;;;;;;;;;4909947;29;19927;-83
2023/07/14 05:26:31;;;;;;;;;;;;;;;;;;4889420;29;19927;-84
2023/07/14 05:28:59;;;;;;;;;;;;;;;;;;4891245;29;19928;-84
2023/07/14 05:31:32;;;;;;;;;;;;;;;;;;4893795;29;20261;-84
2023/07/14 05:33:59;;;;;;;;;;;;;;;;;;4893646;29;19931;-83
2023/07/14 05:36:27;;;;;;;;;;;;;;;;;;4891337;29;19927;-84
2023/07/14 05:38:59;;;;;;;;;;;;;;;;;;4907365;29;19931;-85
2023/07/14 05:41:32;;;;;;;;;;;;;;;;;;4910178;29;19934;-83
2023/07/14 05:44:00;;;;;;;;;;;;;;;;;;4908840;29;19931;-83
2023/07/14 05:46:27;;;;;;;;;;;;;;;;;;4907859;29;20464;-83
2023/07/14 05:48:55;;;;;;;;;;;;;;;;;;4904531;29;19935;-82
2023/07/14 05:51:22;;;;;;;;;;;;;;;;;;4906714;29;20294;-84
2023/07/14 05:53:50;;;;;;;;;;;;;;;;;;4903982;29;19938;-84
2023/07/14 05:56:22;;;;;;;;;;;;;;;;;;4905464;29;19931;-83
2023/07/14 05:58:50;;;;;;;;;;;;;;;;;;4907559;29;19931;-83
2023/07/14 06:01:17;;;;;;;;;;;;;;;;;;4905680;29;20064;-83
2023/07/14 06:03:45;;;;;;;;;;;;;;;;;;4891222;29;19935;-83
2023/07/14 06:06:12;;;;;;;;;;;;;;;;;;4909091;29;19936;-83
2023/07/14 06:08:40;;;;;;;;;;;;;;;;;;4907136;29;19931;-83
2023/07/14 06:11:07;;;;;;;;;;;;;;;;;;4892629;29;20412;-83
2023/07/14 06:13:35;;;;;;;;;;;;;;;;;;4893606;29;19938;-83
2023/07/14 06:16:02;;;;;;;;;;;;;;;;;;4912481;29;20403;-82
2023/07/14 06:18:35;;;;;;;;;;;;;;;;;;4908568;29;19935;-84
2023/07/14 06:21:02;;;;;;;;;;;;;;;;;;4911786;29;19927;-84
2023/07/14 06:23:30;;;;;;;;;;;;;;;;;;4910125;29;20592;-83
2023/07/14 06:26:02;;;;;;;;;;;;;;;;;;4894496;29;20032;-84
2023/07/14 06:28:35;;;;;;;;;;;;;;;;;;4909882;29;20303;-84
2023/07/14 06:31:04;;;;;;;;;;;;;;;;;;4892555;29;19946;-83
2023/07/14 06:33:31;;;;;;;;;;;;;;;;;;4909067;29;19927;-84
2023/07/14 06:35:59;;;;;;;;;;;;;;;;;;4895651;29;19954;-83
2023/07/14 06:38:26;;;;;;;;;;;;;;;;;;4894391;29;20388;-81
2023/07/14 06:40:59;;;;;;;;;;;;;;;;;;4911143;29;19938;-85
2023/07/14 06:43:26;;;;;;;;;;;;;;;;;;4906128;29;19938;-82
2023/07/14 06:45:59;;;;;;;;;;;;;;;;;;4910148;29;20414;-85
2023/07/14 06:48:27;;;;;;;;;;;;;;;;;;4910760;29;19930;-86
2023/07/14 06:50:54;;;;;;;;;;;;;;;;;;4909954;29;19931;-83
2023/07/14 06:53:27;;;;;;;;;;;;;;;;;;4905000;29;20323;-85
2023/07/14 06:55:54;;;;;;;;;;;;;;;;;;4895587;29;19931;-85
2023/07/14 06:58:27;;;;;;;;;;;;;;;;;;4903201;29;19946;-83
2023/07/14 07:00:55;;;;;;;;;;;;;;;;;;4880153;29;19935;-84
2023/07/14 07:03:28;;;;;;;;;;;;;;;;;;4868970;29;19961;-84
2023/07/14 07:05:56;;;;;;;;;;;;;;;;;;4889304;29;19931;-84
2023/07/14 07:08:29;;;;;;;;;;;;;;;;;;4883954;29;19935;-83
2023/07/14 07:10:57;;;;;;;;;;;;;;;;;;4873132;29;19939;-84
2023/07/14 07:13:25;;;;;;;;;;;;;;;;;;4884635;29;19934;-84
2023/07/14 07:15:52;;;;;;;;;;;;;;;;;;4885496;29;19935;-85
2023/07/14 07:18:25;;;;;;;;;;;;;;;;;;4864241;29;19935;-85
2023/07/14 07:20:52;;;;;;;;;;;;;;;;;;4879563;29;19931;-86
2023/07/14 07:23:20;;;;;;;;;;;;;;;;;;4864085;29;22270;-82
2023/07/14 07:25:53;;;;;;;;;;;;;;;;;;4865240;29;19942;-82
2023/07/14 07:28:21;;;;;;;;;;;;;;;;;;4889290;29;19935;-85
2023/07/14 07:30:49;;;;;;;;;;;;;;;;;;4884498;29;19935;-85
2023/07/14 07:33:16;;;;;;;;;;;;;;;;;;4861494;29;19935;-81
2023/07/14 07:35:49;;;;;;;;;;;;;;;;;;4865491;29;21165;-82
2023/07/14 07:38:21;;;;;;;;;;;;;;;;;;4873418;29;19935;-82
2023/07/14 07:40:49;;;;;;;;;;;;;;;;;;4883414;29;19935;-83
2023/07/14 07:43:16;;;;;;;;;;;;;;;;;;4878516;29;19935;-83
2023/07/14 07:45:44;;;;;;;;;;;;;;;;;;4885007;29;19942;-83
2023/07/14 07:48:15;;;;;;;;;;;;;;;;;;4868089;29;19934;-86
2023/07/14 07:50:47;;;;;;;;;;;;;;;;;;4894870;29;19928;-84
2023/07/14 07:53:15;;;;;;;;;;;;;;;;;;4871799;29;19942;-84
2023/07/14 07:55:48;;;;;;;;;;;;;;;;;;4878108;29;19942;-83
2023/07/14 07:58:24;;;;;;;;;;;;;;;;;;4886220;29;19935;-83
2023/07/14 08:00:57;;;;;;;;;;;;;;;;;;4886091;29;19942;-84
2023/07/14 08:03:29;;;;;;;;;;;;;;;;;;4888989;29;19935;-84
2023/07/14 08:05:57;;;;;;;;;;;;;;;;;;4884203;29;19935;-85
2023/07/14 08:08:29;;;;;;;;;;;;;;;;;;4879908;29;20402;-83
2023/07/14 08:11:02;;;;;;;;;;;;;;;;;;4875695;29;19942;-82
2023/07/14 08:13:29;;;;;;;;;;;;;;;;;;4876993;29;19943;-83
2023/07/14 08:15:57;;;;;;;;;;;;;;;;;;4867341;29;19935;-82
2023/07/14 08:18:25;;;;;;;;;;;;;;;;;;4882831;29;19931;-81
2023/07/14 08:20:52;;;;;;;;;;;;;;;;;;4882906;29;19942;-81
2023/07/14 08:23:20;;;;;;;;;;;;;;;;;;4890785;29;19942;-82
2023/07/14 08:25:48;;;;;;;;;;;;;;;;;;4859606;29;19935;-82
2023/07/14 08:28:15;;;;;;;;;;;;;;;;;;4881089;29;20415;-82
2023/07/14 08:30:43;;;;;;;;;;;;;;;;;;4864705;29;19935;-82
2023/07/14 08:33:11;;;;;;;;;;;;;;;;;;4869195;29;19942;-84
2023/07/14 08:35:39;;;;;;;;;;;;;;;;;;4869241;29;19935;-83
2023/07/14 08:38:06;;;;;;;;;;;;;;;;;;4881965;29;20761;-82
2023/07/14 08:40:34;;;;;;;;;;;;;;;;;;4887132;29;20467;-83
2023/07/14 08:43:02;;;;;;;;;;;;;;;;;;4869257;29;19935;-83
2023/07/14 08:45:36;;;;;;;;;;;;;;;;;;4881310;29;19946;-82
2023/07/14 08:48:08;;;;;;;;;;;;;;;;;;4881986;29;19942;-82
2023/07/14 08:50:36;;;;;;;;;;;;;;;;;;4880213;29;19935;-81
2023/07/14 08:53:04;;;;;;;;;;;;;;;;;;4882551;29;19935;-83
2023/07/14 08:55:36;;;;;;;;;;;;;;;;;;4885369;29;19942;-83
2023/07/14 08:58:04;;;;;;;;;;;;;;;;;;4885451;29;21364;-80
2023/07/14 09:00:31;;;;;;;;;;;;;;;;;;4863431;29;19942;-82
2023/07/14 09:02:59;;;;;;;;;;;;;;;;;;4862593;29;19935;-82
2023/07/14 09:05:27;;;;;;;;;;;;;;;;;;4889048;29;20435;-82
2023/07/14 09:07:59;;;;;;;;;;;;;;;;;;4880273;29;20716;-83
2023/07/14 09:10:27;;;;;;;;;;;;;;;;;;4867351;29;19935;-81
2023/07/14 09:12:59;;;;;;;;;;;;;;;;;;4885937;29;20492;-82
2023/07/14 09:15:32;;;;;;;;;;;;;;;;;;4874408;29;19935;-82
2023/07/14 09:17:59;;;;;;;;;;;;;;;;;;4885383;29;20613;-81
2023/07/14 09:20:27;;;;;;;;;;;;;;;;;;4882891;29;21858;-82
2023/07/14 09:23:00;;;;;;;;;;;;;;;;;;4878222;29;19935;-81
2023/07/14 09:25:27;;;;;;;;;;;;;;;;;;4874626;29;19934;-82
2023/07/14 09:27:55;;;;;;;;;;;;;;;;;;4863659;29;19935;-83
2023/07/14 09:30:28;;;;;;;;;;;;;;;;;;4879715;29;20218;-81
2023/07/14 09:33:00;;;;;;;;;;;;;;;;;;4868458;29;19946;-82
2023/07/14 09:35:33;;;;;;;;;;;;;;;;;;4868773;29;20593;-82
2023/07/14 09:38:04;;;;;;;;;;;;;;;;;;4863322;29;19936;-81
2023/07/14 09:40:32;;;;;;;;;;;;;;;;;;4874763;29;19939;-82
2023/07/14 09:43:05;;;;;;;;;;;;;;;;;;4856110;29;20722;-81
2023/07/14 09:45:32;;;;;;;;;;;;;;;;;;4877263;29;19942;-80
2023/07/14 09:48:00;;;;;;;;;;;;;;;;;;4885919;29;19938;-79
2023/07/14 09:50:28;;;;;;;;;;;;;;;;;;4883818;29;20016;-81
2023/07/14 09:52:55;;;;;;;;;;;;;;;;;;4884239;29;19942;-81
2023/07/14 09:55:23;;;;;;;;;;;;;;;;;;4887607;29;20588;-85
2023/07/14 09:57:50;;;;;;;;;;;;;;;;;;4883721;29;19935;-81
2023/07/14 10:00:19;;;;;;;;;;;;;;;;;;4866219;29;19941;-80
2023/07/14 10:02:47;;;;;;;;;;;;;;;;;;4878453;29;19935;-83
2023/07/14 10:05:21;;;;;;;;;;;;;;;;;;4886237;29;19935;-82
2023/07/14 10:07:48;;;;;;;;;;;;;;;;;;4883057;29;19935;-82
2023/07/14 10:10:19;;;;;;;;;;;;;;;;;;4890114;29;19934;-81
2023/07/14 10:12:51;;;;;;;;;;;;;;;;;;4883682;29;19942;-81
2023/07/14 10:15:19;;;;;;;;;;;;;;;;;;4882877;29;19935;-81
2023/07/14 10:17:46;;;;;;;;;;;;;;;;;;4881484;29;21973;-82
2023/07/14 10:20:19;;;;;;;;;;;;;;;;;;4870466;29;19941;-82
2023/07/14 10:22:47;;;;;;;;;;;;;;;;;;4885599;29;19927;-82
2023/07/14 10:25:17;;;;;;;;;;;;;;;;;;4882530;29;19938;-81
2023/07/14 10:27:50;;;;;;;;;;;;;;;;;;4886641;29;19935;-81
2023/07/14 10:30:17;;;;;;;;;;;;;;;;;;4883156;29;19935;-81
2023/07/14 10:32:45;;;;;;;;;;;;;;;;;;4882840;29;19966;-83
2023/07/14 10:35:17;;;;;;;;;;;;;;;;;;4879851;29;19936;-80
2023/07/14 10:37:45;;;;;;;;;;;;;;;;;;4863000;29;19942;-81
2023/07/14 10:40:15;;;;;;;;;;;;;;;;;;4882294;29;19947;-80
2023/07/14 10:42:42;;;;;;;;;;;;;;;;;;4885789;29;19935;-80
2023/07/14 10:45:10;;;;;;;;;;;;;;;;;;4880615;29;19935;-80
2023/07/14 10:47:43;;;;;;;;;;;;;;;;;;4880342;29;19931;-81
2023/07/14 10:50:10;;;;;;;;;;;;;;;;;;4880530;29;19935;-81
2023/07/14 10:52:38;;;;;;;;;;;;;;;;;;4884523;29;20332;-81
2023/07/14 10:55:11;;;;;;;;;;;;;;;;;;4885378;29;20631;-81
2023/07/14 10:57:39;;;;;;;;;;;;;;;;;;4880952;29;19935;-81
2023/07/14 11:00:09;;;;;;;;;;;;;;;;;;4860714;29;19935;-80
2023/07/14 11:02:48;;;;;;;;;;;;;;;;;;4882236;29;19946;-81
2023/07/14 11:05:16;;;;;;;;;;;;;;;;;;4871999;29;19935;-81
2023/07/14 11:07:48;;;;;;;;;;;;;;;;;;4884124;29;19935;-80
2023/07/14 11:10:16;;;;;;;;;;;;;;;;;;4877734;29;19942;-81
2023/07/14 11:12:48;;;;;;;;;;;;;;;;;;4882398;29;19936;-80
2023/07/14 11:15:16;;;;;;;;;;;;;;;;;;4884979;29;19935;-81
2023/07/14 11:17:44;;;;;;;;;;;;;;;;;;4881261;29;19935;-80
2023/07/14 11:20:12;;;;;;;;;;;;;;;;;;4880592;29;19942;-80
2023/07/14 11:22:39;;;;;;;;;;;;;;;;;;4877037;29;19934;-80
2023/07/14 11:25:09;;;;;;;;;;;;;;;;;;4877191;29;19935;-81
2023/07/14 11:27:37;;;;;;;;;;;;;;;;;;4880879;29;19935;-82
2023/07/14 11:30:09;;;;;;;;;;;;;;;;;;4883852;29;19942;-81
2023/07/14 11:32:37;;;;;;;;;;;;;;;;;;4880045;29;19931;-81
2023/07/14 11:35:05;;;;;;;;;;;;;;;;;;4888586;29;20552;-82
2023/07/14 11:37:33;;;;;;;;;;;;;;;;;;4863470;29;19950;-81
2023/07/14 11:40:00;;;;;;;;;;;;;;;;;;4879572;29;19935;-81
2023/07/14 11:42:29;;;;;;;;;;;;;;;;;;4879579;29;20446;-84
2023/07/14 11:45:00;;;;;;;;;;;;;;;;;;4878939;29;19958;-81
2023/07/14 11:47:32;;;;;;;;;;;;;;;;;;4885003;29;20391;-81
2023/07/14 11:50:01;;;;;;;;;;;;;;;;;;4877434;29;19935;-80
2023/07/14 11:52:33;;;;;;;;;;;;;;;;;;4884684;29;19935;-83
2023/07/14 11:55:01;;;;;;;;;;;;;;;;;;4871215;29;19935;-80
2023/07/14 11:57:29;;;;;;;;;;;;;;;;;;4884734;29;19935;-82
2023/07/14 11:59:57;;;;;;;;;;;;;;;;;;4857568;29;19942;-81
2023/07/14 12:02:38;;;;;;;;;;;;;;;;;;4883693;29;19935;-81
2023/07/14 12:05:11;;;;;;;;;;;;;;;;;;4875124;29;21271;-81
2023/07/14 12:07:44;;;;;;;;;;;;;;;;;;4879037;29;19942;-81
2023/07/14 12:10:12;;;;;;;;;;;;;;;;;;4879858;29;20395;-81
2023/07/14 12:12:44;;;;;;;;;;;;;;;;;;4869743;29;19935;-81
2023/07/14 12:15:12;;;;;;;;;;;;;;;;;;4862306;29;19935;-81
2023/07/14 12:17:44;;;;;;;;;;;;;;;;;;4860828;29;19935;-81
2023/07/14 12:20:12;;;;;;;;;;;;;;;;;;4883684;29;19935;-81
2023/07/14 12:22:46;;;;;;;;;;;;;;;;;;4886902;29;20384;-81
2023/07/14 12:25:13;;;;;;;;;;;;;;;;;;4880317;29;19951;-81
2023/07/14 12:27:41;;;;;;;;;;;;;;;;;;4860519;29;19935;-81
2023/07/14 12:30:09;;;;;;;;;;;;;;;;;;4880561;29;19935;-81
2023/07/14 12:32:37;;;;;;;;;;;;;;;;;;4867207;29;19931;-81
2023/07/14 12:35:10;;;;;;;;;;;;;;;;;;4879037;29;19935;-81
2023/07/14 12:37:37;;;;;;;;;;;;;;;;;;4884278;29;19942;-82
2023/07/14 12:40:07;;;;;;;;;;;;;;;;;;4878126;29;19950;-81
2023/07/14 12:42:35;;;;;;;;;;;;;;;;;;4873685;29;19939;-81
2023/07/14 12:45:02;;;;;;;;;;;;;;;;;;4876108;29;19935;-82
2023/07/14 12:47:35;;;;;;;;;;;;;;;;;;4882021;29;19935;-87
2023/07/14 12:50:02;;;;;;;;;;;;;;;;;;4880903;29;20698;-82
2023/07/14 12:52:30;;;;;;;;;;;;;;;;;;4881266;29;19935;-83
2023/07/14 12:54:58;;;;;;;;;;;;;;;;;;4859181;29;19935;-81
2023/07/14 12:57:25;;;;;;;;;;;;;;;;;;4884483;29;19946;-81
2023/07/14 12:59:53;;;;;;;;;;;;;;;;;;4859796;29;19939;-81
2023/07/14 13:02:20;;;;;;;;;;;;;;;;;;4874340;29;19935;-81
2023/07/14 13:04:48;;;;;;;;;;;;;;;;;;4863678;29;19942;-81
2023/07/14 13:07:20;;;;;;;;;;;;;;;;;;4890764;29;19961;-81
2023/07/14 13:09:53;;;;;;;;;;;;;;;;;;4873557;29;19935;-82
2023/07/14 13:12:26;;;;;;;;;;;;;;;;;;4884976;29;20564;-81
2023/07/14 13:15:00;;;;;;;;;;;;;;;;;;4862502;29;21405;-83
2023/07/14 13:17:28;;;;;;;;;;;;;;;;;;4878163;29;19935;-82
2023/07/14 13:20:00;;;;;;;;;;;;;;;;;;4869264;29;19935;-82
2023/07/14 13:22:31;;;;;;;;;;;;;;;;;;4886851;29;19942;-83
2023/07/14 13:24:58;;;;;;;;;;;;;;;;;;4879529;29;20666;-82
2023/07/14 13:27:26;;;;;;;;;;;;;;;;;;4880545;29;20643;-82
2023/07/14 13:29:54;;;;;;;;;;;;;;;;;;4878936;29;19935;-81
2023/07/14 13:32:21;;;;;;;;;;;;;;;;;;4881482;29;19942;-82
2023/07/14 13:34:49;;;;;;;;;;;;;;;;;;4877935;29;19943;-81
2023/07/14 13:37:16;;;;;;;;;;;;;;;;;;4879348;29;19935;-81
2023/07/14 13:39:44;;;;;;;;;;;;;;;;;;4864078;29;19935;-81
2023/07/14 13:42:12;;;;;;;;;;;;;;;;;;4873775;29;20453;-81
2023/07/14 13:44:39;;;;;;;;;;;;;;;;;;4881467;29;19935;-81
2023/07/14 13:47:07;;;;;;;;;;;;;;;;;;4882408;29;19942;-80
2023/07/14 13:49:34;;;;;;;;;;;;;;;;;;4868403;29;19943;-81
2023/07/14 13:52:03;;;;;;;;;;;;;;;;;;4899550;29;20524;-82
2023/07/14 13:54:30;;;;;;;;;;;;;;;;;;4887781;29;19962;-81
2023/07/14 13:57:03;;;;;;;;;;;;;;;;;;4905454;29;20399;-82
2023/07/14 13:59:31;;;;;;;;;;;;;;;;;;4904897;29;19935;-81
2023/07/14 14:01:58;;;;;;;;;;;;;;;;;;4890683;29;20490;-81
2023/07/14 14:04:31;;;;;;;;;;;;;;;;;;4893367;29;19931;-81
2023/07/14 14:07:04;;;;;;;;;;;;;;;;;;4904597;29;19935;-82
2023/07/14 14:09:32;;;;;;;;;;;;;;;;;;4908611;29;20396;-81
2023/07/14 14:11:59;;;;;;;;;;;;;;;;;;4891955;29;19931;-81
2023/07/14 14:14:27;;;;;;;;;;;;;;;;;;4906158;29;19931;-81
2023/07/14 14:16:54;;;;;;;;;;;;;;;;;;4888942;29;19935;-81
2023/07/14 14:19:22;;;;;;;;;;;;;;;;;;4889865;29;19931;-81
2023/07/14 14:21:55;;;;;;;;;;;;;;;;;;4889309;29;19935;-81
2023/07/14 14:24:22;;;;;;;;;;;;;;;;;;4888693;29;19932;-82
2023/07/14 14:26:50;;;;;;;;;;;;;;;;;;4907725;29;19938;-82
2023/07/14 14:29:23;;;;;;;;;;;;;;;;;;4908093;29;20005;-81
2023/07/14 14:31:55;;;;;;;;;;;;;;;;;;4908168;29;19935;-81
2023/07/14 14:34:23;;;;;;;;;;;;;;;;;;4904822;29;20304;-81
2023/07/14 14:36:51;;;;;;;;;;;;;;;;;;4909251;29;20399;-81
2023/07/14 14:39:23;;;;;;;;;;;;;;;;;;4894482;29;19978;-81
2023/07/14 14:41:57;;;;;;;;;;;;;;;;;;4910196;29;19931;-81
2023/07/14 14:44:25;;;;;;;;;;;;;;;;;;4898074;29;20408;-81
2023/07/14 14:46:52;;;;;;;;;;;;;;;;;;4910662;29;19931;-82
2023/07/14 14:49:25;;;;;;;;;;;;;;;;;;4894670;29;19934;-80
2023/07/14 14:51:53;;;;;;;;;;;;;;;;;;4910397;29;20375;-82
2023/07/14 14:54:22;;;;;;;;;;;;;;;;;;4911607;29;19931;-82
2023/07/14 14:56:50;;;;;;;;;;;;;;;;;;4892085;29;20407;-81
2023/07/14 14:59:22;;;;;;;;;;;;;;;;;;4910511;29;19931;-81
2023/07/14 15:01:55;;;;;;;;;;;;;;;;;;4906280;29;19943;-81
2023/07/14 15:04:28;;;;;;;;;;;;;;;;;;4906649;29;20476;-81
2023/07/14 15:06:56;;;;;;;;;;;;;;;;;;4901490;29;20331;-82
2023/07/14 15:09:24;;;;;;;;;;;;;;;;;;4892693;29;20328;-81
2023/07/14 15:11:51;;;;;;;;;;;;;;;;;;4909978;29;20623;-84
2023/07/14 15:14:24;;;;;;;;;;;;;;;;;;4906512;29;20673;-81
2023/07/14 15:16:57;;;;;;;;;;;;;;;;;;4908688;29;19931;-81
2023/07/14 15:19:29;;;;;;;;;;;;;;;;;;4892882;29;19931;-80
2023/07/14 15:22:02;;;;;;;;;;;;;;;;;;4885307;29;19938;-82
2023/07/14 15:24:29;;;;;;;;;;;;;;;;;;4903500;29;19927;-81
2023/07/14 15:27:02;;;;;;;;;;;;;;;;;;4891505;29;19928;-80
2023/07/14 15:29:36;;;;;;;;;;;;;;;;;;4905726;29;19942;-82
2023/07/14 15:32:06;;;;;;;;;;;;;;;;;;4905261;29;19957;-83
2023/07/14 15:34:34;;;;;;;;;;;;;;;;;;4903972;29;19942;-80
2023/07/14 15:37:06;;;;;;;;;;;;;;;;;;4884921;29;19931;-81
2023/07/14 15:39:34;;;;;;;;;;;;;;;;;;4905186;29;20284;-80
2023/07/14 15:42:02;;;;;;;;;;;;;;;;;;4902763;29;19934;-82
2023/07/14 15:44:34;;;;;;;;;;;;;;;;;;4902980;29;19937;-81
2023/07/14 15:47:02;;;;;;;;;;;;;;;;;;4883872;29;19931;-80
2023/07/14 15:49:30;;;;;;;;;;;;;;;;;;4904241;29;19938;-81
2023/07/14 15:52:02;;;;;;;;;;;;;;;;;;4903816;29;19931;-81
2023/07/14 15:54:35;;;;;;;;;;;;;;;;;;4885711;29;20311;-81
2023/07/14 15:57:03;;;;;;;;;;;;;;;;;;4903164;29;19956;-80
2023/07/14 15:59:30;;;;;;;;;;;;;;;;;;4905266;29;19931;-79
2023/07/14 16:02:03;;;;;;;;;;;;;;;;;;4888731;29;19931;-80
2023/07/14 16:04:31;;;;;;;;;;;;;;;;;;4902217;29;19931;-81
2023/07/14 16:06:58;;;;;;;;;;;;;;;;;;4904827;29;19938;-81
2023/07/14 16:09:26;;;;;;;;;;;;;;;;;;4906025;29;19936;-80
2023/07/14 16:11:59;;;;;;;;;;;;;;;;;;4902706;29;19941;-81
2023/07/14 16:14:26;;;;;;;;;;;;;;;;;;4903383;29;19954;-81
2023/07/14 16:16:54;;;;;;;;;;;;;;;;;;4902834;29;19942;-80
2023/07/14 16:19:27;;;;;;;;;;;;;;;;;;4901871;29;19950;-80
2023/07/14 16:21:56;;;;;;;;;;;;;;;;;;4904927;29;19931;-80
2023/07/14 16:24:24;;;;;;;;;;;;;;;;;;4903234;29;19938;-80
2023/07/14 16:26:57;;;;;;;;;;;;;;;;;;4883681;29;19935;-83
2023/07/14 16:29:29;;;;;;;;;;;;;;;;;;4901943;29;19938;-84
2023/07/14 16:31:57;;;;;;;;;;;;;;;;;;4905452;29;21569;-81
2023/07/14 16:34:25;;;;;;;;;;;;;;;;;;4902527;29;19943;-81
2023/07/14 16:36:57;;;;;;;;;;;;;;;;;;4905904;29;19934;-80
2023/07/14 16:39:26;;;;;;;;;;;;;;;;;;4889601;29;19931;-80
2023/07/14 16:41:59;;;;;;;;;;;;;;;;;;4875411;29;19942;-80
2023/07/14 16:44:27;;;;;;;;;;;;;;;;;;4875577;29;19942;-80
2023/07/14 16:46:56;;;;;;;;;;;;;;;;;;4854271;29;19931;-80
2023/07/14 16:49:29;;;;;;;;;;;;;;;;;;4880734;29;19955;-80
2023/07/14 16:51:56;;;;;;;;;;;;;;;;;;4872377;29;19935;-80
2023/07/14 16:54:24;;;;;;;;;;;;;;;;;;4875101;29;20464;-80
2023/07/14 16:56:52;;;;;;;;;;;;;;;;;;4872836;29;19935;-80
2023/07/14 16:59:19;;;;;;;;;;;;;;;;;;4867765;29;19931;-80
2023/07/14 17:01:52;;;;;;;;;;;;;;;;;;4869640;29;19935;-79
2023/07/14 17:04:25;;;;;;;;;;;;;;;;;;4881270;29;19935;-79
2023/07/14 17:06:53;;;;;;;;;;;;;;;;;;4870279;29;19935;-79
2023/07/14 17:09:22;;;;;;;;;;;;;;;;;;4880120;29;19935;-79
2023/07/14 17:11:54;;;;;;;;;;;;;;;;;;4865450;29;19935;-79
2023/07/14 17:14:27;;;;;;;;;;;;;;;;;;4879696;29;19935;-79
2023/07/14 17:16:54;;;;;;;;;;;;;;;;;;4881193;29;19931;-79
2023/07/14 17:19:22;;;;;;;;;;;;;;;;;;4886600;29;19938;-79
2023/07/14 17:21:55;;;;;;;;;;;;;;;;;;4881384;29;19973;-79
2023/07/14 17:24:22;;;;;;;;;;;;;;;;;;4873290;29;19942;-79
2023/07/14 17:26:55;;;;;;;;;;;;;;;;;;4868274;29;19935;-79
2023/07/14 17:29:30;;;;;;;;;;;;;;;;;;4885727;29;21841;-79
2023/07/14 17:31:57;;;;;;;;;;;;;;;;;;4891574;29;19935;-79